createdAt,value
2022-08-24T00:11:02.792Z,72
2022-08-24T00:16:43.598Z,70
2022-08-24T00:22:24.048Z,66
2022-08-24T00:28:05.444Z,76
2022-08-24T00:33:45.804Z,72
2022-08-24T00:39:25.873Z,66
2022-08-24T00:45:05.877Z,72
2022-08-24T00:50:45.983Z,72
2022-08-24T00:56:26.203Z,66
2022-08-24T01:02:20.056Z,66
2022-08-24T01:08:09.719Z,66
2022-08-24T01:13:49.725Z,62
2022-08-24T01:19:30.191Z,74
2022-08-24T01:25:10.346Z,76
2022-08-24T01:30:50.719Z,64
2022-08-24T01:36:31.029Z,66
2022-08-24T01:42:11.365Z,64
2022-08-24T01:47:51.494Z,72
2022-08-24T01:59:11.908Z,70
2022-08-24T02:04:52.092Z,64
2022-08-24T02:10:32.330Z,74
2022-08-24T02:16:12.961Z,66
2022-08-24T02:21:53.289Z,64
2022-08-24T02:27:33.457Z,66
2022-08-24T02:33:13.762Z,72
2022-08-24T02:38:55.098Z,62
2022-08-24T02:44:35.321Z,72
2022-08-24T02:50:15.533Z,74
2022-08-24T02:55:55.799Z,70
2022-08-24T03:01:37.246Z,72
2022-08-24T03:07:17.650Z,60
2022-08-24T03:12:59.986Z,64
2022-08-24T03:19:03.793Z,70
2022-08-24T03:24:48.528Z,66
2022-08-24T03:41:55.498Z,72
2022-08-24T03:47:44.766Z,72
2022-08-24T03:53:25.134Z,72
2022-08-24T03:59:05.374Z,68
2022-08-24T04:04:45.616Z,66
2022-08-24T04:10:25.777Z,64
2022-08-24T04:16:06.385Z,64
2022-08-24T04:21:46.715Z,60
2022-08-24T04:27:27.076Z,66
2022-08-24T04:33:07.107Z,74
2022-08-24T04:38:47.313Z,64
2022-08-24T04:44:32.019Z,72
2022-08-24T04:50:12.171Z,64
2022-08-24T04:55:55.288Z,64
2022-08-24T05:01:35.591Z,70
2022-08-24T05:07:19.443Z,60
2022-08-24T05:13:00.395Z,80
2022-08-24T05:18:41.161Z,72
2022-08-24T05:24:21.586Z,64
2022-08-24T05:30:01.920Z,78
2022-08-24T05:35:45.329Z,64
2022-08-24T05:41:25.728Z,70
2022-08-24T05:52:51.193Z,64
2022-08-24T05:58:32.520Z,64
2022-08-24T06:04:13.492Z,68
2022-08-24T06:09:54.188Z,76
2022-08-24T06:15:34.880Z,70
2022-08-24T06:21:17.094Z,84
2022-08-24T06:26:58.944Z,72
2022-08-24T06:32:39.342Z,78
2022-08-24T06:38:21.707Z,78
2022-08-24T06:44:02.570Z,80
2022-08-24T06:49:43.045Z,76
2022-08-24T06:55:23.519Z,78
2022-08-24T07:01:03.453Z,88
2022-08-24T07:06:43.937Z,84
2022-08-24T07:12:23.962Z,84
2022-08-24T07:18:04.221Z,88
2022-08-24T07:23:44.242Z,88
2022-08-24T07:30:28.249Z,84
2022-08-24T07:36:23.317Z,74
2022-08-24T07:42:32.679Z,26
2022-08-24T07:48:15.256Z,38
2022-08-24T07:53:55.358Z,26
2022-08-24T08:05:15.689Z,36
2022-08-24T08:16:08.642Z,8
2022-08-24T08:21:49.659Z,36
2022-08-24T08:27:29.702Z,24
2022-08-24T08:33:10.352Z,26
2022-08-24T08:38:50.455Z,70
2022-08-24T08:44:32.425Z,76
2022-08-24T08:50:37.986Z,28
2022-08-24T08:56:18.381Z,26
2022-08-24T09:01:59.654Z,48
2022-08-24T09:08:06.855Z,14
2022-08-24T09:13:50.996Z,2
2022-08-24T09:19:44.677Z,4
2022-08-24T09:25:51.989Z,4
2022-08-24T09:31:35.682Z,2
2022-08-24T09:37:25.688Z,4
2022-08-24T09:44:46.175Z,0
2022-08-24T09:50:28.605Z,2
2022-08-24T09:56:08.678Z,0
2022-08-24T14:58:30.230Z,86
2022-08-24T15:15:28.106Z,78
2022-08-24T15:21:08.721Z,84
2022-08-24T15:27:01.030Z,84
2022-08-24T15:32:45.280Z,80
2022-08-24T15:38:32.338Z,78
2022-08-24T15:44:25.113Z,82
2022-08-24T15:50:05.373Z,90
2022-08-24T15:55:53.633Z,80
2022-08-24T16:01:34.787Z,82
2022-08-24T16:07:21.573Z,84
2022-08-24T16:13:07.715Z,78
2022-08-24T16:18:48.082Z,80
2022-08-24T16:24:28.527Z,84
2022-08-24T16:30:15.999Z,86
2022-08-24T16:36:06.922Z,84
2022-08-24T16:41:50.275Z,78
2022-08-24T16:47:30.460Z,92
2022-08-24T16:53:10.606Z,80
2022-08-24T17:04:31.619Z,82
2022-08-24T17:10:11.773Z,82
2022-08-24T17:15:54.321Z,86
2022-08-24T17:21:34.831Z,82
2022-08-24T17:27:15.263Z,84
2022-08-24T17:32:56.227Z,86
2022-08-24T17:38:56.347Z,78
2022-08-24T17:44:37.184Z,78
2022-08-24T17:50:17.422Z,76
2022-08-24T17:56:09.172Z,76
2022-08-24T18:02:12.672Z,74
2022-08-24T18:07:55.836Z,78
2022-08-24T18:13:35.983Z,74
2022-08-24T18:19:37.669Z,82
2022-08-24T18:25:38.287Z,76
2022-08-24T18:31:19.930Z,80
2022-08-24T18:37:00.348Z,80
2022-08-24T18:42:43.667Z,82
2022-08-24T18:48:25.350Z,84
2022-08-24T18:54:06.203Z,76
2022-08-24T18:59:52.616Z,70
2022-08-24T19:05:33.334Z,82
2022-08-24T19:11:13.823Z,82
2022-08-24T19:16:55.873Z,80
2022-08-24T19:22:38.997Z,76
2022-08-24T19:28:19.445Z,66
2022-08-24T19:34:06.765Z,80
2022-08-24T19:39:56.723Z,72
2022-08-24T19:45:39.328Z,76
2022-08-24T19:51:25.453Z,76
2022-08-24T20:02:51.349Z,78
2022-08-24T20:08:31.317Z,84
2022-08-24T20:14:15.037Z,82
2022-08-24T20:19:55.711Z,70
2022-08-24T20:25:35.949Z,80
2022-08-24T20:31:29.583Z,80
2022-08-24T20:37:10.887Z,82
2022-08-24T20:42:50.995Z,74
2022-08-24T20:48:31.273Z,76
2022-08-24T20:54:11.593Z,66
2022-08-24T20:59:52.311Z,72
2022-08-24T21:05:32.475Z,72
2022-08-24T21:11:12.664Z,66
2022-08-24T21:16:55.702Z,78
2022-08-24T21:22:35.921Z,70
2022-08-24T21:28:17.101Z,68
2022-08-24T21:33:57.998Z,76
2022-08-24T21:39:45.593Z,70
2022-08-24T21:51:09.599Z,76
2022-08-24T21:56:50.094Z,68
2022-08-24T22:02:31.849Z,76
2022-08-24T22:08:12.407Z,80
2022-08-24T22:13:53.061Z,76
2022-08-24T22:19:33.702Z,78
2022-08-24T22:25:13.732Z,64
2022-08-24T22:30:54.048Z,80
2022-08-24T22:36:34.377Z,82
2022-08-24T22:42:14.621Z,72
2022-08-24T22:47:54.656Z,66
2022-08-24T22:53:37.048Z,66
2022-08-24T22:59:17.499Z,78
2022-08-24T23:04:58.391Z,80
2022-08-24T23:10:38.714Z,72
2022-08-24T23:16:22.172Z,72
2022-08-24T23:22:02.951Z,76
2022-08-24T23:27:50.545Z,70
2022-08-24T23:45:01.420Z,64
2022-08-24T23:50:42.599Z,72
2022-08-24T23:56:22.681Z,64
